createdAt,value
2023-04-05T00:01:51.975Z,0.90
2023-04-05T00:04:38.969Z,0.80
2023-04-05T00:07:27.316Z,1.00
2023-04-05T00:10:13.331Z,0.77
2023-04-05T00:13:00.118Z,0.87
2023-04-05T00:15:46.293Z,1.07
2023-04-05T00:18:34.398Z,1.10
2023-04-05T00:21:22.682Z,1.00
2023-04-05T00:24:15.462Z,1.20
2023-04-05T00:27:02.311Z,1.20
2023-04-05T00:29:49.065Z,1.00
2023-04-05T00:32:35.490Z,1.03
2023-04-05T00:35:21.936Z,1.10
2023-04-05T00:38:08.697Z,1.20
2023-04-05T00:40:56.228Z,1.13
2023-04-05T00:43:42.620Z,1.03
2023-04-05T00:46:29.890Z,1.43
2023-04-05T00:49:16.690Z,1.00
2023-04-05T00:52:04.017Z,1.37
2023-04-05T00:54:51.248Z,1.20
2023-04-05T00:57:40.184Z,1.13
2023-04-05T01:00:26.380Z,1.63
2023-04-05T01:03:13.834Z,2.00
2023-04-05T01:06:04.032Z,1.27
2023-04-05T01:08:53.711Z,1.50
2023-04-05T01:11:41.438Z,1.57
2023-04-05T01:14:29.182Z,2.27
2023-04-05T01:17:16.515Z,1.60
2023-04-05T01:20:09.051Z,2.00
2023-04-05T01:23:16.006Z,2.20
2023-04-05T01:26:19.711Z,2.07
2023-04-05T01:29:20.635Z,2.10
2023-04-05T01:32:11.543Z,2.70
2023-04-05T01:35:02.816Z,2.60
2023-04-05T01:37:54.115Z,2.60
2023-04-05T01:40:43.493Z,2.43
2023-04-05T01:43:29.870Z,2.37
2023-04-05T01:46:16.095Z,2.23
2023-04-05T01:49:03.775Z,2.30
2023-04-05T01:51:50.017Z,3.17
2023-04-05T01:54:36.230Z,3.00
2023-04-05T01:57:22.582Z,3.40
2023-04-05T02:00:10.642Z,2.80
2023-04-05T02:02:57.259Z,3.00
2023-04-05T02:05:45.101Z,3.17
2023-04-05T02:08:31.537Z,3.03
2023-04-05T02:11:17.958Z,3.27
2023-04-05T02:14:04.589Z,3.90
2023-04-05T02:16:51.202Z,4.20
2023-04-05T02:19:41.056Z,3.70
2023-04-05T02:22:29.897Z,3.00
2023-04-05T02:25:16.655Z,3.20
2023-04-05T02:28:03.212Z,3.73
2023-04-05T02:30:49.384Z,4.20
2023-04-05T02:33:35.762Z,3.87
2023-04-05T02:36:22.310Z,4.00
2023-04-05T02:39:09.988Z,3.80
2023-04-05T02:41:56.811Z,4.10
2023-04-05T02:44:43.111Z,4.00
2023-04-05T02:51:00.918Z,4.57
2023-04-05T02:53:48.193Z,3.20
2023-04-05T02:56:35.582Z,3.67
2023-04-05T02:59:22.650Z,3.50
2023-04-05T03:02:10.235Z,3.73
2023-04-05T03:04:56.584Z,3.63
2023-04-05T03:07:46.847Z,4.40
2023-04-05T03:10:36.217Z,4.20
2023-04-05T03:13:24.326Z,4.80
2023-04-05T03:16:10.591Z,3.60
2023-04-05T03:18:57.276Z,5.53
2023-04-05T03:21:45.498Z,4.27
2023-04-05T03:24:32.038Z,4.50
2023-04-05T03:27:18.900Z,4.70
2023-04-05T03:30:11.530Z,3.90
2023-04-05T03:33:01.765Z,3.70
2023-04-05T03:35:49.750Z,4.80
2023-04-05T03:38:40.868Z,4.70
2023-04-05T03:41:30.924Z,5.40
2023-04-05T03:44:17.717Z,6.73
2023-04-05T03:47:06.841Z,5.53
2023-04-05T03:49:53.017Z,4.23
2023-04-05T03:52:39.008Z,3.73
2023-04-05T03:55:25.471Z,4.23
2023-04-05T03:58:11.941Z,3.63
2023-04-05T04:00:58.335Z,3.80
2023-04-05T04:03:46.140Z,3.27
2023-04-05T04:06:32.731Z,3.50
2023-04-05T04:09:19.117Z,4.17
2023-04-05T04:12:05.374Z,3.27
2023-04-05T04:14:52.056Z,3.50
2023-04-05T04:17:39.621Z,3.87
2023-04-05T04:20:27.404Z,4.13
2023-04-05T04:23:14.565Z,3.27
2023-04-05T04:26:01.825Z,3.50
2023-04-05T04:28:48.884Z,3.57
2023-04-05T04:31:35.207Z,3.40
2023-04-05T04:34:21.736Z,3.97
2023-04-05T04:37:17.711Z,4.03
2023-04-05T04:40:08.928Z,3.20
2023-04-05T04:42:58.785Z,4.17
2023-04-05T04:45:48.324Z,2.87
2023-04-05T04:48:38.082Z,3.53
2023-04-05T04:51:24.129Z,4.30
2023-04-05T04:54:12.984Z,3.77
2023-04-05T04:57:00.002Z,3.07
2023-04-05T04:59:46.346Z,4.27
2023-04-05T05:02:32.907Z,3.63
2023-04-05T05:05:22.806Z,3.20
2023-04-05T05:08:09.075Z,4.47
2023-04-05T05:10:56.736Z,3.87
2023-04-05T05:13:43.562Z,3.77
2023-04-05T05:16:30.127Z,3.70
2023-04-05T05:19:16.548Z,3.67
2023-04-05T05:22:03.002Z,3.53
2023-04-05T05:24:49.519Z,5.00
2023-04-05T05:27:37.381Z,3.17
2023-04-05T05:30:23.891Z,4.07
2023-04-05T05:33:10.801Z,3.93
2023-04-05T05:35:57.103Z,3.83
2023-04-05T05:38:44.212Z,4.43
2023-04-05T05:41:30.752Z,4.47
2023-04-05T05:44:18.327Z,3.77
2023-04-05T05:47:04.869Z,3.30
2023-04-05T05:49:51.233Z,3.70
2023-04-05T05:52:37.195Z,3.03
2023-04-05T05:55:23.661Z,2.60
2023-04-05T05:58:10.311Z,3.17
2023-04-05T06:00:58.963Z,3.27
2023-04-05T06:03:46.088Z,3.53
2023-04-05T06:06:35.068Z,2.23
2023-04-05T06:09:23.262Z,4.93
2023-04-05T06:12:09.593Z,3.10
2023-04-05T06:14:56.256Z,2.77
2023-04-05T06:17:44.914Z,3.00
2023-04-05T06:20:31.313Z,2.47
2023-04-05T06:23:17.331Z,2.67
2023-04-05T06:26:04.142Z,2.37
2023-04-05T06:28:50.277Z,1.80
2023-04-05T06:31:37.048Z,2.57
2023-04-05T06:34:24.783Z,1.90
2023-04-05T06:37:11.186Z,1.97
2023-04-05T06:39:57.431Z,2.30
2023-04-05T06:42:43.661Z,2.60
2023-04-05T06:45:29.913Z,2.63
2023-04-05T06:48:16.142Z,2.83
2023-04-05T06:51:07.418Z,1.80
2023-04-05T06:53:53.887Z,2.07
2023-04-05T06:56:40.296Z,3.10
2023-04-05T06:59:27.473Z,2.40
2023-04-05T07:02:14.084Z,2.40
2023-04-05T07:05:05.170Z,2.07
2023-04-05T07:07:53.293Z,2.23
2023-04-05T07:10:41.576Z,2.07
2023-04-05T07:13:27.865Z,1.87
2023-04-05T07:16:14.066Z,2.27
2023-04-05T07:19:00.620Z,2.90
2023-04-05T07:21:47.072Z,11.33
2023-04-05T07:24:34.733Z,8.87
2023-04-05T07:27:21.215Z,2.63
2023-04-05T07:30:08.447Z,2.10
2023-04-05T07:32:55.007Z,3.43
2023-04-05T07:35:41.614Z,3.17
2023-04-05T07:38:29.342Z,4.30
2023-04-05T07:41:20.035Z,6.83
2023-04-05T07:44:06.586Z,2.63
2023-04-05T07:46:52.710Z,2.83
2023-04-05T07:49:39.069Z,2.70
2023-04-05T07:52:25.219Z,2.80
2023-04-05T07:55:11.749Z,2.67
2023-04-05T07:57:59.641Z,2.20
2023-04-05T08:00:45.903Z,3.10
2023-04-05T08:03:35.134Z,2.50
2023-04-05T08:06:21.974Z,2.03
2023-04-05T08:09:09.123Z,3.20
2023-04-05T08:11:57.301Z,2.60
2023-04-05T08:14:45.025Z,2.40
2023-04-05T08:17:31.282Z,2.90
2023-04-05T08:20:17.672Z,2.97
2023-04-05T08:23:04.377Z,3.00
2023-04-05T08:25:50.737Z,2.37
2023-04-05T08:28:36.754Z,2.57
2023-04-05T08:31:24.536Z,2.63
2023-04-05T08:34:11.300Z,1.80
2023-04-05T08:36:59.216Z,2.20
2023-04-05T08:39:45.501Z,2.80
2023-04-05T08:42:35.735Z,1.83
2023-04-05T08:45:24.120Z,2.33
2023-04-05T08:48:11.592Z,3.10
2023-04-05T08:50:57.824Z,2.80
2023-04-05T08:53:43.972Z,2.63
2023-04-05T08:56:32.722Z,1.87
2023-04-05T08:59:19.689Z,4.23
2023-04-05T09:02:09.497Z,2.30
2023-04-05T09:04:57.807Z,2.33
2023-04-05T09:07:47.877Z,2.00
2023-04-05T09:10:34.131Z,2.13
2023-04-05T09:13:20.373Z,3.40
2023-04-05T09:16:06.684Z,4.47
2023-04-05T09:18:52.812Z,6.00
2023-04-05T09:21:57.960Z,3.17
2023-04-05T09:24:47.528Z,2.10
2023-04-05T09:27:34.265Z,3.17
2023-04-05T09:30:22.506Z,2.50
2023-04-05T09:33:10.365Z,2.07
2023-04-05T09:35:57.058Z,2.50
2023-04-05T09:38:44.264Z,2.63
2023-04-05T09:41:32.071Z,2.20
2023-04-05T09:44:18.542Z,2.90
2023-04-05T09:47:16.188Z,2.40
2023-04-05T09:50:06.110Z,1.97
2023-04-05T09:52:52.862Z,2.43
2023-04-05T09:55:40.703Z,2.23
2023-04-05T09:58:33.454Z,2.47
2023-04-05T10:01:20.221Z,2.47
2023-04-05T10:04:06.449Z,2.67
2023-04-05T10:06:53.074Z,2.40
2023-04-05T10:09:39.738Z,2.70
2023-04-05T10:12:27.225Z,1.67
2023-04-05T10:15:15.219Z,2.43
2023-04-05T10:18:04.839Z,2.30
2023-04-05T10:20:51.997Z,2.80
2023-04-05T10:23:39.555Z,2.50
2023-04-05T10:26:31.410Z,2.57
2023-04-05T10:29:21.046Z,1.07
2023-04-05T10:32:12.511Z,1.87
2023-04-05T10:35:02.042Z,2.40
2023-04-05T10:37:55.113Z,1.50
2023-04-05T10:40:47.031Z,1.97
2023-04-05T10:43:35.535Z,1.57
2023-04-05T10:46:22.856Z,1.70
2023-04-05T10:49:13.565Z,1.90
2023-04-05T10:52:00.160Z,1.90
2023-04-05T10:54:47.077Z,2.00
2023-04-05T10:57:36.142Z,2.20
2023-04-05T11:00:23.498Z,2.43
2023-04-05T11:03:10.477Z,2.00
2023-04-05T11:06:18.336Z,2.23
2023-04-05T11:09:11.622Z,2.40
2023-04-05T11:11:58.032Z,2.67
2023-04-05T11:14:44.682Z,2.07
2023-04-05T11:17:31.211Z,1.83
2023-04-05T11:20:17.556Z,2.40
2023-04-05T11:23:05.160Z,2.10
2023-04-05T11:25:52.920Z,5.10
2023-04-05T11:28:41.010Z,3.03
2023-04-05T11:31:27.669Z,2.90
2023-04-05T11:34:14.164Z,6.00
2023-04-05T11:37:00.790Z,3.80
2023-04-05T11:39:48.543Z,2.53
2023-04-05T11:42:35.041Z,1.50
2023-04-05T11:45:22.354Z,2.20
2023-04-05T11:48:09.130Z,2.90
2023-04-05T11:50:56.037Z,2.50
2023-04-05T11:53:47.249Z,2.83
2023-04-05T11:56:34.979Z,2.87
2023-04-05T11:59:21.522Z,3.00
2023-04-05T12:02:09.139Z,3.27
2023-04-05T12:04:56.493Z,1.97
2023-04-05T12:07:42.862Z,2.73
2023-04-05T12:10:29.355Z,2.13
2023-04-05T12:13:16.991Z,2.23
2023-04-05T12:16:04.218Z,2.53
2023-04-05T12:18:54.559Z,1.87
2023-04-05T12:21:41.168Z,2.03
2023-04-05T12:24:27.840Z,3.10
2023-04-05T12:27:14.128Z,2.03
2023-04-05T12:30:15.938Z,2.70
2023-04-05T12:33:08.406Z,2.27
2023-04-05T12:35:55.122Z,1.90
2023-04-05T12:38:41.444Z,2.63
2023-04-05T12:41:28.501Z,2.30
2023-04-05T12:44:16.590Z,2.10
2023-04-05T12:47:07.626Z,2.20
2023-04-05T12:49:56.265Z,2.07
2023-04-05T12:52:52.822Z,2.50
2023-04-05T12:55:43.966Z,2.73
2023-04-05T12:58:33.918Z,1.93
2023-04-05T13:01:20.390Z,2.40
2023-04-05T13:04:16.211Z,2.80
2023-04-05T13:07:03.171Z,3.00
2023-04-05T13:09:49.351Z,2.27
2023-04-05T13:12:35.770Z,2.23
2023-04-05T13:15:22.298Z,2.03
2023-04-05T13:18:09.113Z,2.10
2023-04-05T13:20:57.138Z,1.80
2023-04-05T13:27:25.087Z,1.90
2023-04-05T13:30:11.948Z,1.80
2023-04-05T13:32:58.457Z,2.03
2023-04-05T13:35:44.950Z,2.57
2023-04-05T13:38:32.850Z,2.47
2023-04-05T13:41:19.345Z,2.00
2023-04-05T13:44:06.710Z,2.20
2023-04-05T13:46:53.664Z,2.10
2023-04-05T13:49:39.917Z,2.30
2023-04-05T13:52:27.045Z,2.37
2023-04-05T13:55:15.006Z,2.37
2023-04-05T13:58:01.591Z,2.10
2023-04-05T14:00:47.751Z,2.10
2023-04-05T14:03:34.422Z,2.20
2023-04-05T14:06:20.809Z,1.70
2023-04-05T14:09:09.915Z,2.17
2023-04-05T14:11:59.559Z,2.60
2023-04-05T14:14:45.866Z,2.03
2023-04-05T14:17:32.640Z,2.10
2023-04-05T14:20:19.472Z,1.90
2023-04-05T14:23:05.754Z,2.07
2023-04-05T14:25:51.996Z,2.00
2023-04-05T14:28:39.879Z,1.77
2023-04-05T14:31:26.556Z,2.33
2023-04-05T14:34:13.002Z,2.10
2023-04-05T14:37:00.987Z,2.23
2023-04-05T14:39:47.264Z,2.40
2023-04-05T14:42:47.916Z,2.90
2023-04-05T14:45:37.500Z,2.50
2023-04-05T14:48:23.916Z,2.20
2023-04-05T14:51:10.091Z,2.43
2023-04-05T14:53:56.279Z,2.93
2023-04-05T14:56:43.138Z,2.90
2023-04-05T14:59:29.256Z,2.50
2023-04-05T15:02:17.286Z,2.50
2023-04-05T15:05:03.766Z,2.17
2023-04-05T15:07:49.814Z,3.53
2023-04-05T15:10:36.248Z,2.60
2023-04-05T15:13:24.226Z,2.10
2023-04-05T15:16:11.590Z,3.13
2023-04-05T15:19:00.265Z,3.27
2023-04-05T15:21:46.754Z,2.50
2023-04-05T15:24:33.297Z,2.63
2023-04-05T15:27:19.769Z,3.03
2023-04-05T15:30:06.915Z,3.10
2023-04-05T15:32:54.000Z,2.27
2023-04-05T15:35:41.943Z,2.57
2023-04-05T15:38:28.467Z,3.43
2023-04-05T15:41:14.647Z,3.37
2023-04-05T15:44:01.145Z,2.97
2023-04-05T15:46:47.871Z,3.70
2023-04-05T15:49:34.620Z,3.20
2023-04-05T15:52:22.693Z,6.13
2023-04-05T15:55:09.221Z,4.30
2023-04-05T15:57:55.732Z,7.07
2023-04-05T16:00:42.250Z,3.43
2023-04-05T16:03:28.863Z,3.00
2023-04-05T16:06:15.739Z,2.43
2023-04-05T16:09:03.853Z,2.57
2023-04-05T16:11:50.956Z,2.23
2023-04-05T16:14:37.241Z,3.87
2023-04-05T16:17:25.524Z,3.30
2023-04-05T16:20:12.408Z,4.30
2023-04-05T16:22:58.679Z,3.03
2023-04-05T16:25:46.370Z,4.23
2023-04-05T16:28:32.786Z,4.67
2023-04-05T16:31:19.038Z,3.83
2023-04-05T16:34:05.140Z,3.57
2023-04-05T16:36:51.394Z,4.97
2023-04-05T16:39:37.552Z,3.60
2023-04-05T16:42:25.543Z,4.00
2023-04-05T16:45:12.581Z,7.40
2023-04-05T16:47:59.187Z,6.93
2023-04-05T16:50:45.598Z,4.90
2023-04-05T16:53:31.813Z,5.77
2023-04-05T16:56:18.137Z,4.23
2023-04-05T16:59:07.532Z,4.73
2023-04-05T17:01:54.933Z,4.20
2023-04-05T17:04:41.528Z,3.90
2023-04-05T17:07:27.942Z,5.67
2023-04-05T17:10:14.209Z,7.40
2023-04-05T17:13:00.874Z,4.37
2023-04-05T17:15:49.318Z,4.17
2023-04-05T17:18:35.672Z,4.23
2023-04-05T17:21:23.009Z,5.73
2023-04-05T17:24:09.948Z,7.30
2023-04-05T17:26:56.493Z,4.47
2023-04-05T17:29:42.844Z,3.90
2023-04-05T17:32:30.736Z,4.17
2023-04-05T17:35:17.500Z,4.93
2023-04-05T17:38:03.996Z,5.10
2023-04-05T17:40:50.396Z,5.50
2023-04-05T17:43:36.578Z,4.93
2023-04-05T17:46:34.058Z,4.00
2023-04-05T17:49:28.353Z,3.87
2023-04-05T17:52:14.992Z,5.90
2023-04-05T17:55:01.600Z,5.87
2023-04-05T17:57:47.895Z,5.53
2023-04-05T18:00:34.341Z,5.70
2023-04-05T18:03:20.759Z,5.37
2023-04-05T18:06:09.217Z,4.83
2023-04-05T18:08:56.125Z,5.10
2023-04-05T18:11:42.362Z,4.50
2023-04-05T18:14:28.502Z,5.83
2023-04-05T18:17:15.410Z,5.53
2023-04-05T18:20:01.838Z,5.33
2023-04-05T18:22:49.828Z,9.37
2023-04-05T18:25:37.021Z,9.07
2023-04-05T18:28:23.828Z,4.37
2023-04-05T18:31:11.785Z,4.27
2023-04-05T18:34:00.262Z,4.30
2023-04-05T18:36:46.945Z,4.67
2023-04-05T18:39:34.638Z,5.43
2023-04-05T18:42:20.972Z,3.87
2023-04-05T18:45:08.865Z,4.30
2023-04-05T18:47:55.141Z,4.27
2023-04-05T18:50:41.409Z,2.93
2023-04-05T18:53:27.770Z,3.87
2023-04-05T18:56:15.404Z,4.53
2023-04-05T18:59:01.881Z,4.83
2023-04-05T19:01:48.458Z,3.83
2023-04-05T19:04:35.253Z,4.20
2023-04-05T19:07:21.896Z,3.37
2023-04-05T19:10:08.732Z,3.63
2023-04-05T19:12:56.919Z,4.83
2023-04-05T19:15:43.460Z,3.67
2023-04-05T19:18:30.747Z,4.37
2023-04-05T19:21:17.203Z,4.07
2023-04-05T19:24:03.507Z,4.87
2023-04-05T19:26:49.660Z,7.90
2023-04-05T19:29:37.893Z,4.67
2023-04-05T19:32:24.378Z,7.67
2023-04-05T19:35:10.987Z,11.40
2023-04-05T19:37:58.621Z,6.47
2023-04-05T19:40:44.855Z,6.27
2023-04-05T19:43:31.809Z,5.50
2023-04-05T19:46:20.650Z,5.00
2023-04-05T19:49:09.705Z,12.70
2023-04-05T19:51:56.371Z,7.30
2023-04-05T19:54:43.869Z,6.33
2023-04-05T19:57:30.444Z,5.27
2023-04-05T20:00:31.780Z,4.33
2023-04-05T20:03:28.711Z,4.37
2023-04-05T20:06:18.391Z,3.97
2023-04-05T20:09:07.728Z,4.37
2023-04-05T20:11:56.407Z,4.00
2023-04-05T20:14:43.692Z,4.03
2023-04-05T20:17:30.330Z,4.43
2023-04-05T20:20:18.195Z,3.90
2023-04-05T20:23:05.727Z,3.67
2023-04-05T20:25:52.205Z,3.83
2023-04-05T20:28:39.336Z,3.60
2023-04-05T20:31:26.365Z,2.50
2023-04-05T20:34:13.810Z,3.17
2023-04-05T20:37:02.454Z,3.53
2023-04-05T20:39:50.465Z,3.77
2023-04-05T20:42:37.489Z,3.03
2023-04-05T20:45:23.706Z,3.37
2023-04-05T20:48:11.114Z,3.77
2023-04-05T20:50:57.844Z,2.90
2023-04-05T20:53:45.957Z,3.53
2023-04-05T20:56:32.669Z,3.70
2023-04-05T20:59:18.926Z,3.40
2023-04-05T21:02:05.764Z,4.03
2023-04-05T21:04:52.430Z,3.10
2023-04-05T21:07:38.524Z,3.97
2023-04-05T21:10:26.379Z,3.77
2023-04-05T21:13:12.821Z,3.27
2023-04-05T21:15:59.314Z,3.07
2023-04-05T21:18:46.874Z,2.93
2023-04-05T21:21:33.620Z,2.83
2023-04-05T21:24:19.669Z,2.90
2023-04-05T21:27:08.249Z,3.53
2023-04-05T21:29:54.915Z,3.60
2023-04-05T21:32:41.162Z,2.87
2023-04-05T21:35:27.784Z,3.97
2023-04-05T21:38:15.829Z,3.27
2023-04-05T21:41:02.456Z,3.63
2023-04-05T21:43:50.098Z,3.40
2023-04-05T21:46:36.634Z,3.10
2023-04-05T21:49:25.486Z,2.50
2023-04-05T21:52:11.627Z,3.20
2023-04-05T21:54:58.317Z,3.13
2023-04-05T21:57:44.493Z,3.13
2023-04-05T22:00:32.257Z,3.50
2023-04-05T22:03:18.936Z,2.73
2023-04-05T22:06:05.737Z,4.10
2023-04-05T22:08:53.104Z,3.90
2023-04-05T22:11:39.894Z,3.23
2023-04-05T22:14:26.558Z,3.70
2023-04-05T22:17:14.382Z,4.90
2023-04-05T22:20:00.823Z,3.70
2023-04-05T22:22:47.733Z,3.50
2023-04-05T22:25:34.103Z,2.87
2023-04-05T22:28:20.329Z,3.50
2023-04-05T22:31:07.001Z,4.17
2023-04-05T22:33:54.810Z,3.17
2023-04-05T22:36:42.609Z,3.17
2023-04-05T22:39:29.175Z,3.03
2023-04-05T22:42:15.605Z,3.83
2023-04-05T22:45:03.659Z,3.83
2023-04-05T22:47:50.244Z,3.23
2023-04-05T22:50:37.951Z,3.47
2023-04-05T22:53:24.765Z,3.73
2023-04-05T22:56:11.279Z,3.23
2023-04-05T22:58:57.595Z,4.17
2023-04-05T23:01:44.236Z,4.07
2023-04-05T23:04:30.835Z,2.93
2023-04-05T23:07:19.037Z,3.47
2023-04-05T23:10:05.817Z,3.30
2023-04-05T23:12:52.589Z,3.93
2023-04-05T23:15:39.165Z,4.00
2023-04-05T23:18:25.735Z,3.23
2023-04-05T23:21:11.832Z,3.27
2023-04-05T23:23:59.673Z,2.93
2023-04-05T23:26:46.171Z,3.20
2023-04-05T23:29:32.765Z,2.80
2023-04-05T23:32:19.076Z,2.77
2023-04-05T23:35:05.720Z,2.77
2023-04-05T23:37:51.811Z,2.47
2023-04-05T23:40:39.687Z,3.13
2023-04-05T23:43:26.106Z,2.90
2023-04-05T23:46:12.862Z,2.73
2023-04-05T23:48:59.184Z,3.43
2023-04-05T23:51:45.562Z,3.20
2023-04-05T23:54:32.276Z,3.50
2023-04-05T23:57:20.162Z,3.20
